createdAt,value
2023-04-23T00:01:17.691Z,13.89
2023-04-23T00:03:45.118Z,13.99
2023-04-23T00:06:13.041Z,13.85
2023-04-23T00:08:41.680Z,13.87
2023-04-23T00:11:09.995Z,13.93
2023-04-23T00:13:37.757Z,13.97
2023-04-23T00:16:05.438Z,13.83
2023-04-23T00:18:32.569Z,13.76
2023-04-23T00:20:59.613Z,13.93
2023-04-23T00:23:26.742Z,13.80
2023-04-23T00:25:53.855Z,13.92
2023-04-23T00:28:22.208Z,13.63
2023-04-23T00:30:49.561Z,13.75
2023-04-23T00:33:16.654Z,13.76
2023-04-23T00:35:43.651Z,13.74
2023-04-23T00:38:10.679Z,13.46
2023-04-23T00:40:37.811Z,13.57
2023-04-23T00:43:05.243Z,13.61
2023-04-23T00:45:32.264Z,13.63
2023-04-23T00:47:59.576Z,13.54
2023-04-23T00:50:26.688Z,13.34
2023-04-23T00:52:53.624Z,13.27
2023-04-23T00:55:23.754Z,13.02
2023-04-23T00:57:50.960Z,12.89
2023-04-23T01:00:18.796Z,12.86
2023-04-23T01:02:47.839Z,12.91
2023-04-23T01:05:16.384Z,12.86
2023-04-23T01:07:45.593Z,12.86
2023-04-23T01:10:13.092Z,13.04
2023-04-23T01:12:40.307Z,13.01
2023-04-23T01:15:08.759Z,12.92
2023-04-23T01:17:35.776Z,12.98
2023-04-23T01:20:02.727Z,12.87
2023-04-23T01:22:29.621Z,12.95
2023-04-23T01:24:57.313Z,12.82
2023-04-23T01:27:25.039Z,12.78
2023-04-23T01:29:52.976Z,12.75
2023-04-23T01:32:21.100Z,12.53
2023-04-23T01:34:49.207Z,12.36
2023-04-23T01:37:17.343Z,12.19
2023-04-23T01:39:44.383Z,12.18
2023-04-23T01:42:11.481Z,12.20
2023-04-23T01:44:38.758Z,12.33
2023-04-23T01:47:07.072Z,12.34
2023-04-23T01:49:34.359Z,12.32
2023-04-23T01:52:01.322Z,12.45
2023-04-23T01:54:28.259Z,12.46
2023-04-23T01:56:55.794Z,12.63
2023-04-23T01:59:22.964Z,12.59
2023-04-23T02:01:50.831Z,12.64
2023-04-23T02:04:18.927Z,12.55
2023-04-23T02:06:49.521Z,12.40
2023-04-23T02:09:16.827Z,12.34
2023-04-23T02:11:43.904Z,12.35
2023-04-23T02:14:11.652Z,12.29
2023-04-23T02:16:39.406Z,12.07
2023-04-23T02:19:06.398Z,12.19
2023-04-23T02:21:33.341Z,11.99
2023-04-23T02:24:00.307Z,12.12
2023-04-23T02:26:29.000Z,11.88
2023-04-23T02:28:55.910Z,12.03
2023-04-23T02:31:23.179Z,11.95
2023-04-23T02:33:50.323Z,12.00
2023-04-23T02:36:17.869Z,12.02
2023-04-23T02:38:45.521Z,11.85
2023-04-23T02:41:12.451Z,11.85
2023-04-23T02:43:39.407Z,11.94
2023-04-23T02:46:09.529Z,11.83
2023-04-23T02:48:41.450Z,11.91
2023-04-23T02:51:14.257Z,11.81
2023-04-23T02:53:41.219Z,11.50
2023-04-23T02:56:08.211Z,11.64
2023-04-23T02:58:35.424Z,11.75
2023-04-23T03:01:02.889Z,11.51
2023-04-23T03:03:31.982Z,11.60
2023-04-23T03:06:01.896Z,11.39
2023-04-23T03:08:29.030Z,11.44
2023-04-23T03:10:56.246Z,11.52
2023-04-23T03:13:23.431Z,11.40
2023-04-23T03:15:51.707Z,11.36
2023-04-23T03:18:19.009Z,11.50
2023-04-23T03:20:49.217Z,11.40
2023-04-23T03:23:17.527Z,11.40
2023-04-23T03:25:45.981Z,11.24
2023-04-23T03:28:13.004Z,11.22
2023-04-23T03:30:40.361Z,11.28
2023-04-23T03:33:07.816Z,11.29
2023-04-23T03:35:34.824Z,11.13
2023-04-23T03:38:04.431Z,11.25
2023-04-23T03:40:32.039Z,11.23
2023-04-23T03:43:02.868Z,11.18
2023-04-23T03:45:50.109Z,11.18
2023-04-23T03:48:17.672Z,11.22
2023-04-23T03:50:44.614Z,11.17
2023-04-23T03:53:24.838Z,11.24
2023-04-23T03:56:14.418Z,11.43
2023-04-23T03:58:49.390Z,11.52
2023-04-23T04:01:16.670Z,11.66
2023-04-23T04:03:43.832Z,11.58
2023-04-23T04:06:11.022Z,11.59
2023-04-23T04:08:37.955Z,11.49
2023-04-23T04:11:04.862Z,11.37
2023-04-23T04:13:31.815Z,11.29
2023-04-23T04:15:58.739Z,11.30
2023-04-23T04:18:25.638Z,11.37
2023-04-23T04:20:53.316Z,11.19
2023-04-23T04:23:20.625Z,11.37
2023-04-23T04:25:47.573Z,11.31
2023-04-23T04:28:15.428Z,11.30
2023-04-23T04:30:42.624Z,11.39
2023-04-23T04:33:09.938Z,11.21
2023-04-23T04:35:36.941Z,11.33
2023-04-23T04:38:03.873Z,11.29
2023-04-23T04:40:31.499Z,11.37
2023-04-23T04:43:00.146Z,11.34
2023-04-23T04:45:27.101Z,11.23
2023-04-23T04:47:54.008Z,11.26
2023-04-23T04:50:20.916Z,11.33
2023-04-23T04:52:47.812Z,11.49
2023-04-23T04:55:14.767Z,11.63
2023-04-23T04:57:41.750Z,11.68
2023-04-23T05:00:29.395Z,11.78
2023-04-23T05:02:57.963Z,11.83
2023-04-23T05:05:26.753Z,11.90
2023-04-23T05:07:54.548Z,11.80
2023-04-23T05:10:21.620Z,11.69
2023-04-23T05:12:48.576Z,11.94
2023-04-23T05:15:15.584Z,11.81
2023-04-23T05:17:45.462Z,11.87
2023-04-23T05:20:12.398Z,11.87
2023-04-23T05:22:41.334Z,11.93
2023-04-23T05:25:10.118Z,11.97
2023-04-23T05:27:36.991Z,11.71
2023-04-23T05:30:06.176Z,11.92
2023-04-23T05:32:33.118Z,11.92
2023-04-23T05:35:01.114Z,11.84
2023-04-23T05:37:28.486Z,11.84
2023-04-23T05:39:55.838Z,11.88
2023-04-23T05:42:23.106Z,11.69
2023-04-23T05:44:50.228Z,11.63
2023-04-23T05:47:17.195Z,11.50
2023-04-23T05:49:44.082Z,11.66
2023-04-23T05:52:11.564Z,11.88
2023-04-23T05:54:39.264Z,11.97
2023-04-23T05:57:06.441Z,11.95
2023-04-23T05:59:34.269Z,11.96
2023-04-23T06:02:01.231Z,12.07
2023-04-23T06:04:28.363Z,11.98
2023-04-23T06:06:55.669Z,12.10
2023-04-23T06:09:22.575Z,12.05
2023-04-23T06:11:50.700Z,12.06
2023-04-23T06:14:17.630Z,12.08
2023-04-23T06:16:44.592Z,12.05
2023-04-23T06:19:11.945Z,12.15
2023-04-23T06:21:39.115Z,12.16
2023-04-23T06:24:08.036Z,12.22
2023-04-23T06:26:35.075Z,12.34
2023-04-23T06:29:10.013Z,12.33
2023-04-23T06:32:01.595Z,12.48
2023-04-23T06:34:28.488Z,12.54
2023-04-23T06:36:55.666Z,12.70
2023-04-23T06:39:22.671Z,12.71
2023-04-23T06:41:49.594Z,12.89
2023-04-23T06:44:43.085Z,12.94
2023-04-23T06:47:10.421Z,12.99
2023-04-23T06:49:37.357Z,12.94
2023-04-23T06:52:04.307Z,13.03
2023-04-23T06:54:31.196Z,12.97
2023-04-23T06:56:58.120Z,12.99
2023-04-23T06:59:25.127Z,12.92
2023-04-23T07:01:54.986Z,13.03
2023-04-23T07:04:21.934Z,13.26
2023-04-23T07:06:48.900Z,13.51
2023-04-23T07:09:15.817Z,13.70
2023-04-23T07:11:42.781Z,13.82
2023-04-23T07:14:09.856Z,13.80
2023-04-23T07:16:36.812Z,13.78
2023-04-23T07:19:03.848Z,13.78
2023-04-23T07:21:30.978Z,13.79
2023-04-23T07:23:59.926Z,13.80
2023-04-23T07:26:27.841Z,13.84
2023-04-23T07:28:54.909Z,13.97
2023-04-23T07:31:22.342Z,14.10
2023-04-23T07:33:49.377Z,14.46
2023-04-23T07:36:16.303Z,14.57
2023-04-23T07:38:43.360Z,14.57
2023-04-23T07:41:10.319Z,14.70
2023-04-23T07:43:37.250Z,14.93
2023-04-23T07:46:05.038Z,15.16
2023-04-23T07:48:32.048Z,15.13
2023-04-23T07:50:59.019Z,15.34
2023-04-23T07:53:26.157Z,15.60
2023-04-23T07:55:53.214Z,15.88
2023-04-23T07:58:20.091Z,16.02
2023-04-23T08:00:47.170Z,16.18
2023-04-23T08:03:14.363Z,16.28
2023-04-23T08:05:41.632Z,16.34
2023-04-23T08:08:10.907Z,16.56
2023-04-23T08:10:37.890Z,16.83
2023-04-23T08:13:04.814Z,17.19
2023-04-23T08:15:31.731Z,17.32
2023-04-23T08:17:58.711Z,17.44
2023-04-23T08:20:27.524Z,17.74
2023-04-23T08:22:55.602Z,17.78
2023-04-23T08:25:22.594Z,17.97
2023-04-23T08:27:50.027Z,17.75
2023-04-23T08:30:16.996Z,17.66
2023-04-23T08:32:43.932Z,17.94
2023-04-23T08:35:11.007Z,18.08
2023-04-23T08:37:39.912Z,18.51
2023-04-23T08:40:08.604Z,18.52
2023-04-23T08:42:55.184Z,18.92
2023-04-23T08:45:22.722Z,18.85
2023-04-23T08:47:50.238Z,18.46
2023-04-23T08:50:19.789Z,18.41
2023-04-23T08:52:57.653Z,18.44
2023-04-23T08:55:25.824Z,18.37
2023-04-23T08:57:53.093Z,18.58
2023-04-23T09:00:23.075Z,18.84
2023-04-23T09:02:50.700Z,18.73
2023-04-23T09:05:18.207Z,18.54
2023-04-23T09:07:45.566Z,18.48
2023-04-23T09:10:16.016Z,18.19
2023-04-23T09:12:45.080Z,18.54
2023-04-23T09:15:13.319Z,18.74
2023-04-23T09:17:45.964Z,18.75
2023-04-23T09:20:14.406Z,18.74
2023-04-23T09:22:48.106Z,19.25
2023-04-23T09:25:20.635Z,19.36
2023-04-23T09:27:49.186Z,19.39
2023-04-23T09:30:17.064Z,19.25
2023-04-23T09:32:46.052Z,19.30
2023-04-23T09:35:19.628Z,19.16
2023-04-23T09:37:50.791Z,19.11
2023-04-23T09:40:24.394Z,19.00
2023-04-23T09:42:54.295Z,19.42
2023-04-23T09:45:21.783Z,18.92
2023-04-23T09:47:59.373Z,19.44
2023-04-23T09:50:38.261Z,19.27
2023-04-23T09:53:07.268Z,19.23
2023-04-23T09:55:39.701Z,19.25
2023-04-23T09:58:15.405Z,18.99
2023-04-23T10:00:43.432Z,18.65
2023-04-23T10:03:10.969Z,18.52
2023-04-23T10:05:59.682Z,18.41
2023-04-23T10:08:28.146Z,18.08
2023-04-23T10:11:09.420Z,17.96
2023-04-23T10:13:42.148Z,18.30
2023-04-23T10:16:21.302Z,18.55
2023-04-23T10:18:52.920Z,19.05
2023-04-23T10:21:20.192Z,19.02
2023-04-23T10:23:50.396Z,19.18
2023-04-23T10:26:20.204Z,19.56
2023-04-23T10:28:48.998Z,19.71
2023-04-23T10:31:19.844Z,19.98
2023-04-23T10:36:25.827Z,20.47
2023-04-23T10:38:58.861Z,20.52
2023-04-23T10:41:39.614Z,20.09
2023-04-23T10:44:12.142Z,19.65
2023-04-23T10:46:39.541Z,19.72
2023-04-23T10:49:10.329Z,19.87
2023-04-23T10:54:09.794Z,19.64
2023-04-23T10:56:39.671Z,19.88
2023-04-23T10:59:21.860Z,20.03
2023-04-23T11:01:50.862Z,20.18
2023-04-23T11:04:28.690Z,20.51
2023-04-23T11:06:58.344Z,20.97
2023-04-23T11:09:44.627Z,21.02
2023-04-23T11:12:24.799Z,21.19
2023-04-23T11:14:54.706Z,21.04
2023-04-23T11:17:44.267Z,20.54
2023-04-23T11:20:20.137Z,20.25
2023-04-23T11:22:49.636Z,20.22
2023-04-23T11:25:27.680Z,20.30
2023-04-23T11:28:01.399Z,20.56
2023-04-23T11:30:30.649Z,20.72
2023-04-23T11:33:00.497Z,20.81
2023-04-23T11:35:29.516Z,20.98
2023-04-23T11:37:56.975Z,21.12
2023-04-23T11:40:30.911Z,21.17
2023-04-23T11:42:59.111Z,21.48
2023-04-23T11:45:28.702Z,20.90
2023-04-23T11:47:57.135Z,20.29
2023-04-23T11:50:33.552Z,20.06
2023-04-23T11:53:10.000Z,19.57
2023-04-23T11:55:38.173Z,19.72
2023-04-23T11:58:05.803Z,19.87
2023-04-23T12:00:32.746Z,20.01
2023-04-23T12:03:01.960Z,19.88
2023-04-23T12:05:36.688Z,19.70
2023-04-23T12:08:19.525Z,19.45
2023-04-23T12:10:51.715Z,19.30
2023-04-23T12:13:30.006Z,19.39
2023-04-23T12:16:02.213Z,19.46
2023-04-23T12:18:31.029Z,19.55
2023-04-23T12:21:10.552Z,19.57
2023-04-23T12:23:39.405Z,19.68
2023-04-23T12:26:12.014Z,19.87
2023-04-23T12:28:51.624Z,20.41
2023-04-23T12:31:25.223Z,20.68
2023-04-23T12:34:06.367Z,20.89
2023-04-23T12:36:36.017Z,21.02
2023-04-23T12:39:34.792Z,21.05
2023-04-23T12:42:10.031Z,20.95
2023-04-23T12:44:38.391Z,20.86
2023-04-23T12:47:12.395Z,20.72
2023-04-23T12:49:41.390Z,20.59
2023-04-23T12:52:10.858Z,20.34
2023-04-23T12:54:40.596Z,19.97
2023-04-23T12:57:12.734Z,19.72
2023-04-23T12:59:40.122Z,19.54
2023-04-23T13:02:07.601Z,19.37
2023-04-23T13:04:36.426Z,19.34
2023-04-23T13:07:04.271Z,19.04
2023-04-23T13:09:31.275Z,18.61
2023-04-23T13:11:59.892Z,18.09
2023-04-23T13:14:28.020Z,17.39
2023-04-23T13:16:55.528Z,17.19
2023-04-23T13:19:22.427Z,17.16
2023-04-23T13:21:49.435Z,17.22
2023-04-23T13:24:16.480Z,17.23
2023-04-23T13:26:43.635Z,17.31
2023-04-23T13:29:10.542Z,17.41
2023-04-23T13:31:37.718Z,17.56
2023-04-23T13:34:04.666Z,17.46
2023-04-23T13:36:31.631Z,17.36
2023-04-23T13:38:58.590Z,17.41
2023-04-23T13:41:25.576Z,17.34
2023-04-23T13:43:52.733Z,17.21
2023-04-23T13:46:19.936Z,17.29
2023-04-23T13:48:46.980Z,17.24
2023-04-23T13:51:26.494Z,17.47
2023-04-23T13:53:59.897Z,17.63
2023-04-23T13:56:27.660Z,17.82
2023-04-23T13:58:58.136Z,18.05
2023-04-23T14:01:35.389Z,18.04
2023-04-23T14:04:04.291Z,18.08
2023-04-23T14:06:31.582Z,18.25
2023-04-23T14:08:58.513Z,18.32
2023-04-23T14:11:25.435Z,18.43
2023-04-23T14:13:52.394Z,18.36
2023-04-23T14:16:19.305Z,18.61
2023-04-23T14:18:46.469Z,18.76
2023-04-23T14:21:15.629Z,18.99
2023-04-23T14:23:56.434Z,19.08
2023-04-23T14:29:30.050Z,19.22
2023-04-23T14:31:57.009Z,19.30
2023-04-23T14:34:24.002Z,19.31
2023-04-23T14:36:52.984Z,19.51
2023-04-23T14:39:22.482Z,19.71
2023-04-23T14:41:49.408Z,19.53
2023-04-23T14:44:16.298Z,19.96
2023-04-23T14:46:43.226Z,20.11
2023-04-23T14:49:11.007Z,20.26
2023-04-23T14:51:37.924Z,20.53
2023-04-23T14:54:04.995Z,20.72
2023-04-23T14:56:32.095Z,20.84
2023-04-23T14:58:59.030Z,20.72
2023-04-23T15:01:26.704Z,20.55
2023-04-23T15:03:54.137Z,20.44
2023-04-23T15:06:21.555Z,20.35
2023-04-23T15:08:48.567Z,20.26
2023-04-23T15:11:15.623Z,20.23
2023-04-23T15:13:49.298Z,20.13
2023-04-23T15:19:12.401Z,19.96
2023-04-23T15:21:41.787Z,19.67
2023-04-23T15:24:08.898Z,19.57
2023-04-23T15:26:37.055Z,19.54
2023-04-23T15:29:06.082Z,19.36
2023-04-23T15:31:33.080Z,19.14
2023-04-23T15:34:00.436Z,18.87
2023-04-23T15:36:27.364Z,18.14
2023-04-23T15:38:54.418Z,17.57
2023-04-23T15:41:21.905Z,16.75
2023-04-23T15:43:50.321Z,15.94
2023-04-23T15:46:17.413Z,15.71
2023-04-23T15:48:44.540Z,15.30
2023-04-23T15:51:12.596Z,14.80
2023-04-23T15:53:39.626Z,14.85
2023-04-23T15:56:06.523Z,14.64
2023-04-23T15:58:33.416Z,14.46
2023-04-23T16:01:01.870Z,14.37
2023-04-23T16:03:29.013Z,14.54
2023-04-23T16:05:55.972Z,14.64
2023-04-23T16:08:23.063Z,14.91
2023-04-23T16:10:49.932Z,15.00
2023-04-23T16:13:16.840Z,15.20
2023-04-23T16:15:43.888Z,15.47
2023-04-23T16:18:10.816Z,15.41
2023-04-23T16:20:37.793Z,15.32
2023-04-23T16:23:06.562Z,15.30
2023-04-23T16:25:33.530Z,15.39
2023-04-23T16:28:00.868Z,15.42
2023-04-23T16:30:27.909Z,15.60
2023-04-23T16:32:54.912Z,15.60
2023-04-23T16:35:21.978Z,15.53
2023-04-23T16:37:48.990Z,15.75
2023-04-23T16:40:15.893Z,15.69
2023-04-23T16:42:43.740Z,15.54
2023-04-23T16:45:11.463Z,15.61
2023-04-23T16:47:38.452Z,15.69
2023-04-23T16:50:06.261Z,15.64
2023-04-23T16:52:33.210Z,15.62
2023-04-23T16:55:00.202Z,15.62
2023-04-23T16:57:27.721Z,15.43
2023-04-23T16:59:54.653Z,15.50
2023-04-23T17:02:21.699Z,15.48
2023-04-23T17:04:49.379Z,15.53
2023-04-23T17:07:17.032Z,15.34
2023-04-23T17:09:43.990Z,15.31
2023-04-23T17:12:10.886Z,15.03
2023-04-23T17:14:37.761Z,15.12
2023-04-23T17:17:04.664Z,15.35
2023-04-23T17:19:31.578Z,15.53
2023-04-23T17:21:58.714Z,15.57
2023-04-23T17:24:25.871Z,15.53
2023-04-23T17:26:52.930Z,15.64
2023-04-23T17:29:20.189Z,15.81
2023-04-23T17:31:47.205Z,15.75
2023-04-23T17:34:14.174Z,15.82
2023-04-23T17:36:41.353Z,15.91
2023-04-23T17:39:08.355Z,15.94
2023-04-23T17:41:35.265Z,15.79
2023-04-23T17:44:02.262Z,15.72
2023-04-23T17:46:55.129Z,15.80
2023-04-23T17:49:22.584Z,15.72
2023-04-23T17:51:49.624Z,15.66
2023-04-23T17:54:16.520Z,15.53
2023-04-23T17:56:43.459Z,15.49
2023-04-23T17:59:10.976Z,15.48
2023-04-23T18:01:38.405Z,15.46
2023-04-23T18:04:05.947Z,15.38
2023-04-23T18:06:33.514Z,15.41
2023-04-23T18:09:00.628Z,15.36
2023-04-23T18:11:27.848Z,15.32
2023-04-23T18:13:54.863Z,15.16
2023-04-23T18:16:21.888Z,15.17
2023-04-23T18:18:49.423Z,15.09
2023-04-23T18:21:18.101Z,15.07
2023-04-23T18:23:45.586Z,14.95
2023-04-23T18:26:12.524Z,14.89
2023-04-23T18:28:39.400Z,14.85
2023-04-23T18:31:06.380Z,14.87
2023-04-23T18:33:48.757Z,14.71
2023-04-23T18:36:31.552Z,14.79
2023-04-23T18:38:58.895Z,14.77
2023-04-23T18:41:28.693Z,14.63
2023-04-23T18:43:55.782Z,14.64
2023-04-23T18:46:23.426Z,14.58
2023-04-23T18:49:00.620Z,14.55
2023-04-23T18:51:33.152Z,14.52
2023-04-23T18:54:01.709Z,14.69
2023-04-23T18:56:28.805Z,14.78
2023-04-23T18:58:55.817Z,14.77
2023-04-23T19:01:24.017Z,14.78
2023-04-23T19:03:51.025Z,14.89
2023-04-23T19:06:18.787Z,14.87
2023-04-23T19:08:45.817Z,14.95
2023-04-23T19:11:12.719Z,14.88
2023-04-23T19:13:39.665Z,14.82
2023-04-23T19:16:07.078Z,14.89
2023-04-23T19:18:34.087Z,14.87
2023-04-23T19:21:00.989Z,14.96
2023-04-23T19:23:27.975Z,14.94
2023-04-23T19:25:54.860Z,14.90
2023-04-23T19:28:21.816Z,14.94
2023-04-23T19:30:48.744Z,14.86
2023-04-23T19:33:15.935Z,14.86
2023-04-23T19:35:43.096Z,14.91
2023-04-23T19:38:10.054Z,14.93
2023-04-23T19:40:36.960Z,14.84
2023-04-23T19:43:04.069Z,14.89
2023-04-23T19:45:32.176Z,14.88
2023-04-23T19:47:59.849Z,14.97
2023-04-23T19:50:26.881Z,14.88
2023-04-23T19:52:53.915Z,14.96
2023-04-23T19:55:25.733Z,14.82
2023-04-23T19:57:54.788Z,14.90
2023-04-23T20:00:26.999Z,14.91
2023-04-23T20:02:55.441Z,14.77
2023-04-23T20:05:22.889Z,14.62
2023-04-23T20:07:49.836Z,14.62
2023-04-23T20:10:17.613Z,14.52
2023-04-23T20:12:44.801Z,14.27
2023-04-23T20:15:12.623Z,14.18
2023-04-23T20:17:40.092Z,13.95
2023-04-23T20:20:09.406Z,13.82
2023-04-23T20:22:36.360Z,13.57
2023-04-23T20:25:03.460Z,13.63
2023-04-23T20:27:30.572Z,13.66
2023-04-23T20:29:57.492Z,13.71
2023-04-23T20:32:24.461Z,13.75
2023-04-23T20:34:52.621Z,13.67
2023-04-23T20:37:22.661Z,13.60
2023-04-23T20:39:50.091Z,13.75
2023-04-23T20:42:17.084Z,13.71
2023-04-23T20:44:46.846Z,13.75
2023-04-23T20:47:16.311Z,13.71
2023-04-23T20:49:43.599Z,13.68
2023-04-23T20:52:16.462Z,13.61
2023-04-23T20:54:43.451Z,13.83
2023-04-23T20:57:11.041Z,13.86
2023-04-23T20:59:37.952Z,13.93
2023-04-23T21:02:07.157Z,13.86
2023-04-23T21:04:34.218Z,13.79
2023-04-23T21:07:01.668Z,13.79
2023-04-23T21:09:28.599Z,13.78
2023-04-23T21:11:56.984Z,13.77
2023-04-23T21:14:23.922Z,13.86
2023-04-23T21:16:51.037Z,13.78
2023-04-23T21:19:18.026Z,13.73
2023-04-23T21:21:44.934Z,13.70
2023-04-23T21:24:11.870Z,13.68
2023-04-23T21:26:41.664Z,13.75
2023-04-23T21:29:08.693Z,13.66
2023-04-23T21:31:46.766Z,13.63
2023-04-23T21:34:16.815Z,13.64
2023-04-23T21:36:46.744Z,13.57
2023-04-23T21:39:13.853Z,13.55
2023-04-23T21:41:40.977Z,13.54
2023-04-23T21:44:09.042Z,13.43
2023-04-23T21:46:36.109Z,13.39
2023-04-23T21:49:03.122Z,13.45
2023-04-23T21:51:30.273Z,13.28
2023-04-23T21:53:57.261Z,13.23
2023-04-23T21:56:24.260Z,13.13
2023-04-23T21:58:51.207Z,13.18
2023-04-23T22:01:18.332Z,13.21
2023-04-23T22:03:46.611Z,13.11
2023-04-23T22:06:15.874Z,12.95
2023-04-23T22:08:44.592Z,12.93
2023-04-23T22:11:12.104Z,12.78
2023-04-23T22:13:39.156Z,12.71
2023-04-23T22:16:13.474Z,12.56
2023-04-23T22:18:48.104Z,12.72
2023-04-23T22:21:15.083Z,12.67
2023-04-23T22:23:41.962Z,12.66
2023-04-23T22:26:08.939Z,12.59
2023-04-23T22:28:35.875Z,12.71
2023-04-23T22:31:02.996Z,12.69
2023-04-23T22:33:29.992Z,12.82
2023-04-23T22:35:56.927Z,12.72
2023-04-23T22:38:23.878Z,12.67
2023-04-23T22:40:51.130Z,12.86
2023-04-23T22:43:18.032Z,12.83
2023-04-23T22:45:45.044Z,12.83
2023-04-23T22:48:12.015Z,12.81
2023-04-23T22:50:40.055Z,12.94
2023-04-23T22:53:07.075Z,12.96
2023-04-23T22:55:34.433Z,12.90
2023-04-23T22:58:01.437Z,12.89
2023-04-23T23:00:28.333Z,12.93
2023-04-23T23:02:55.815Z,12.94
2023-04-23T23:05:22.814Z,12.98
2023-04-23T23:07:50.195Z,13.01
2023-04-23T23:10:17.223Z,12.92
2023-04-23T23:12:44.155Z,12.96
2023-04-23T23:15:11.710Z,12.95
2023-04-23T23:17:38.936Z,12.87
2023-04-23T23:20:08.722Z,12.82
2023-04-23T23:22:36.407Z,12.89
2023-04-23T23:25:04.170Z,12.90
2023-04-23T23:27:31.097Z,12.94
2023-04-23T23:29:58.136Z,12.86
2023-04-23T23:32:25.126Z,12.90
2023-04-23T23:34:52.043Z,12.83
2023-04-23T23:37:19.252Z,12.80
2023-04-23T23:39:46.187Z,12.72
2023-04-23T23:42:13.080Z,12.58
2023-04-23T23:44:40.090Z,12.66
2023-04-23T23:47:07.078Z,12.82
2023-04-23T23:49:34.057Z,12.79
2023-04-23T23:52:01.825Z,12.71
2023-04-23T23:54:28.749Z,12.66
2023-04-23T23:56:57.243Z,12.71
2023-04-23T23:59:24.356Z,12.63
